Startpagina
METAR-TAF:

METAR-TAF

Vliegvelden :

Rarotonga, Cookeilanden

breedte: 21-12S, lengte: 159-49W, hoogte: 7 m

Actueel weer

Dit bericht is 10 minuten geleden gemaakt, om 07:00 UTC
Wind 11 kt uit het oostnoordoosten
Temperatuur 28°C
Vochtigheid 84%
Druk 1014 hPa
Zicht 10 km of meer
Verspreide wolken op 1500 ft
Gebroken wolken op 29000 ft

METAR: NCRG 270700Z 06011KT 9999 SCT015 BKN290 28/25 Q1014

Tijdstip: 21:10 (07:10 UTC)

Verwachting

Dit bericht is 1 uur en het 43 minuten geleden gemaakt, om 05:27 UTC
Verwachting geldig van 27 om 06 UTC tot 28 om 06 UTC
Wind 11 kt uit het noordoosten
Zicht 10 km of meer
Verspreide wolken op 1600 ft
Kans 30% :
Tijdelijke
van 28 om 00 UTC tot 28 om 06 UTC
Zicht: 7000 m
Gebroken wolken op 1500 ft
regenbuien

TAF: NCRG 270527Z 2706/2806 04011KT 9999 SCT016 PROB30 TEMPO 2800/2806 7000 SHRA BKN015

Waarnemingen en weersverwachtingen van meer dan 4000 vliegvelden (METAR en TAF).

De beschikbare stations zijn de gele en rode punten op de kaart.

Ga met uw muis naar het station om de naam te zien.

Klik dan om waarnemingen en weersverwachtingen te zien.

kaart wijzigen: klik op de groene knoppen met een zwart kruis om in te zoomen, op de groene knop met een streepje om uit te zoomen of op de groene pijlen voor aangrenzende kaarten.


METAR-TAF: